ANE37YV LEZL-LEAM

Flight info

Callsign ANE37YV
Flight time 0h 51m
Altitude 19000
Route MAR M744 MGA L112 KUNEN
Aircraft AT76/M-SDFGRY/HB1

Departure

Time 2026-04-23 22:27
Airport Seville Airport (LEZL)

Arrival

Time 2026-04-23 23:19
Airport Almería Airport (LEAM)
Time Latitude Longitude Altitude Speed Heading
2026-04-23 22:06 37.42383 -5.89587 90 ft 0 kts 100°
2026-04-23 22:18 37.42377 -5.89569 91 ft 3 kts 132°
2026-04-23 22:18 37.42355 -5.89564 90 ft 3 kts 187°
2026-04-23 22:18 37.42340 -5.89574 90 ft 2 kts 214°
2026-04-23 22:19 37.42327 -5.89588 91 ft 3 kts 225°
2026-04-23 22:19 37.42310 -5.89610 92 ft 4 kts 225°
2026-04-23 22:19 37.42282 -5.89636 90 ft 5 kts 207°
2026-04-23 22:19 37.42245 -5.89647 93 ft 6 kts 185°
2026-04-23 22:20 37.42205 -5.89638 92 ft 6 kts 154°
2026-04-23 22:20 37.42172 -5.89602 94 ft 7 kts 133°
2026-04-23 22:20 37.42137 -5.89557 93 ft 7 kts 134°
2026-04-23 22:20 37.42103 -5.89513 94 ft 7 kts 135°
2026-04-23 22:21 37.42067 -5.89466 94 ft 8 kts 132°
2026-04-23 22:21 37.42027 -5.89415 97 ft 8 kts 135°
2026-04-23 22:21 37.41988 -5.89362 95 ft 8 kts 121°
2026-04-23 22:21 37.41983 -5.89282 96 ft 10 kts 89°
2026-04-23 22:22 37.41983 -5.89184 97 ft 12 kts 89°
2026-04-23 22:22 37.41984 -5.89074 97 ft 13 kts 90°
2026-04-23 22:22 37.41982 -5.88956 98 ft 14 kts 92°
2026-04-23 22:22 37.41980 -5.88834 99 ft 14 kts 91°
2026-04-23 22:23 37.41981 -5.88709 100 ft 14 kts 87°
2026-04-23 22:23 37.41986 -5.88584 100 ft 15 kts 88°
2026-04-23 22:23 37.41986 -5.88455 101 ft 15 kts 91°
2026-04-23 22:23 37.41985 -5.88326 102 ft 15 kts 90°
2026-04-23 22:24 37.41987 -5.88196 102 ft 15 kts 89°
2026-04-23 22:24 37.41987 -5.88065 103 ft 15 kts 90°
2026-04-23 22:24 37.41987 -5.87935 104 ft 15 kts 89°
2026-04-23 22:24 37.41988 -5.87804 104 ft 15 kts 90°
2026-04-23 22:25 37.41987 -5.87675 105 ft 15 kts 90°
2026-04-23 22:25 37.41985 -5.87547 106 ft 14 kts 99°
2026-04-23 22:25 37.41946 -5.87445 108 ft 11 kts 136°
2026-04-23 22:25 37.41888 -5.87426 112 ft 7 kts 180°
2026-04-23 22:26 37.41853 -5.87438 113 ft 4 kts 200°
2026-04-23 22:26 37.41821 -5.87459 114 ft 7 kts 216°
2026-04-23 22:26 37.41800 -5.87506 113 ft 7 kts 262°
2026-04-23 22:26 37.41800 -5.87542 113 ft 0 kts 271°
2026-04-23 22:27 37.41800 -5.87719 109 ft 52 kts 269°
2026-04-23 22:27 37.41796 -5.88445 104 ft 111 kts 270°
2026-04-23 22:27 37.41795 -5.89535 435 ft 123 kts 266°
2026-04-23 22:27 37.41790 -5.90624 933 ft 132 kts 270°
2026-04-23 22:28 37.42024 -5.91774 1337 ft 139 kts 288°
2026-04-23 22:28 37.42330 -5.92927 1704 ft 143 kts 285°
2026-04-23 22:28 37.42644 -5.94220 1825 ft 164 kts 285°
2026-04-23 22:28 37.42977 -5.95609 2207 ft 167 kts 284°
2026-04-23 22:29 37.43193 -5.96553 2431 ft 171 kts 282°
2026-04-23 22:29 37.43493 -5.98008 2808 ft 172 kts 283°
2026-04-23 22:29 37.43939 -5.99939 3335 ft 173 kts 279°
2026-04-23 22:29 37.44080 -6.00929 3571 ft 175 kts 273°
2026-04-23 22:30 37.44028 -6.02468 3892 ft 176 kts 253°
2026-04-23 22:30 37.43308 -6.04261 4357 ft 174 kts 223°
2026-04-23 22:30 37.42667 -6.04892 4618 ft 172 kts 207°
2026-04-23 22:30 37.41604 -6.05463 5067 ft 165 kts 196°
2026-04-23 22:31 37.40507 -6.05838 5486 ft 163 kts 188°
2026-04-23 22:31 37.39358 -6.05914 5789 ft 168 kts 176°
2026-04-23 22:31 37.38202 -6.05655 6145 ft 168 kts 166°
2026-04-23 22:31 37.37081 -6.05232 6490 ft 171 kts 163°
2026-04-23 22:32 37.35924 -6.04748 6738 ft 176 kts 162°
2026-04-23 22:32 37.34774 -6.04176 7038 ft 180 kts 157°
2026-04-23 22:32 37.33649 -6.03473 7285 ft 184 kts 154°
2026-04-23 22:32 37.32593 -6.02559 7660 ft 183 kts 143°
2026-04-23 22:33 37.31630 -6.01525 8011 ft 182 kts 143°
2026-04-23 22:33 37.30698 -6.00427 8245 ft 189 kts 139°
2026-04-23 22:33 37.29829 -5.99148 8500 ft 194 kts 131°
2026-04-23 22:33 37.29088 -5.97735 8863 ft 193 kts 128°
2026-04-23 22:34 37.28385 -5.96280 9119 ft 197 kts 126°
2026-04-23 22:34 37.27749 -5.94731 9384 ft 201 kts 120°
2026-04-23 22:34 37.27196 -5.93139 9709 ft 200 kts 121°
2026-04-23 22:34 37.26681 -5.91487 9970 ft 204 kts 116°
2026-04-23 22:35 37.26224 -5.89809 10209 ft 206 kts 114°
2026-04-23 22:35 37.25915 -5.88018 10438 ft 211 kts 106°
2026-04-23 22:35 37.25666 -5.86205 10686 ft 211 kts 107°
2026-04-23 22:35 37.25379 -5.84392 10934 ft 211 kts 109°
2026-04-23 22:36 37.25033 -5.82596 11177 ft 211 kts 111°
2026-04-23 22:36 37.24652 -5.80838 11436 ft 211 kts 112°
2026-04-23 22:36 37.24257 -5.79055 11689 ft 212 kts 112°
2026-04-23 22:36 37.23868 -5.77263 11945 ft 213 kts 112°
2026-04-23 22:37 37.23479 -5.75468 12191 ft 214 kts 112°
2026-04-23 22:37 37.23091 -5.73679 12444 ft 214 kts 112°
2026-04-23 22:37 37.22699 -5.71873 12685 ft 215 kts 112°
2026-04-23 22:37 37.22305 -5.70055 12933 ft 216 kts 112°
2026-04-23 22:38 37.21909 -5.68228 13167 ft 217 kts 112°
2026-04-23 22:38 37.21510 -5.66394 13404 ft 218 kts 112°
2026-04-23 22:38 37.21111 -5.64556 13630 ft 219 kts 112°
2026-04-23 22:38 37.20709 -5.62710 13867 ft 220 kts 113°
2026-04-23 22:39 37.20307 -5.60856 14070 ft 220 kts 112°
2026-04-23 22:39 37.19905 -5.59012 14268 ft 221 kts 112°
2026-04-23 22:39 37.19497 -5.57145 14467 ft 222 kts 112°
2026-04-23 22:39 37.19093 -5.55290 14661 ft 222 kts 112°
2026-04-23 22:40 37.18685 -5.53418 14847 ft 223 kts 112°
2026-04-23 22:40 37.18270 -5.51522 14963 ft 228 kts 112°
2026-04-23 22:40 37.17402 -5.47574 15049 ft 241 kts 112°
2026-04-23 22:41 37.16956 -5.45541 15059 ft 247 kts 112°
2026-04-23 22:41 37.16497 -5.43434 15062 ft 253 kts 111°
2026-04-23 22:41 37.16030 -5.41288 15063 ft 257 kts 111°
2026-04-23 22:41 37.15554 -5.39109 15062 ft 260 kts 111°
2026-04-23 22:42 37.15074 -5.36915 15058 ft 263 kts 111°
2026-04-23 22:42 37.14587 -5.34698 15059 ft 265 kts 111°
2026-04-23 22:42 37.14094 -5.32466 15060 ft 266 kts 111°
2026-04-23 22:42 37.13600 -5.30218 15054 ft 268 kts 111°
2026-04-23 22:43 37.13110 -5.27997 15051 ft 268 kts 112°
2026-04-23 22:43 37.12606 -5.25733 15058 ft 269 kts 111°
2026-04-23 22:43 37.12108 -5.23471 15033 ft 269 kts 111°
2026-04-23 22:43 37.11605 -5.21216 15032 ft 268 kts 111°
2026-04-23 22:44 37.11109 -5.18960 15050 ft 268 kts 111°
2026-04-23 22:44 37.10611 -5.16712 15057 ft 269 kts 111°
2026-04-23 22:44 37.10109 -5.14452 15058 ft 270 kts 111°
2026-04-23 22:44 37.09603 -5.12172 15053 ft 272 kts 111°
2026-04-23 22:45 37.09093 -5.09890 15050 ft 273 kts 111°
2026-04-23 22:45 37.08591 -5.07628 15048 ft 273 kts 111°
2026-04-23 22:45 37.08079 -5.05338 15047 ft 273 kts 111°
2026-04-23 22:45 37.07570 -5.03047 15050 ft 272 kts 111°
2026-04-23 22:46 37.07059 -5.00759 15051 ft 272 kts 111°
2026-04-23 22:46 37.06548 -4.98472 15052 ft 272 kts 111°
2026-04-23 22:46 37.06044 -4.96215 15051 ft 272 kts 111°
2026-04-23 22:46 37.05521 -4.93932 15058 ft 269 kts 115°
2026-04-23 22:47 37.04755 -4.91813 15058 ft 266 kts 124°
2026-04-23 22:47 37.03854 -4.89815 15053 ft 266 kts 126°
2026-04-23 22:47 37.02932 -4.87811 15055 ft 266 kts 126°
2026-04-23 22:47 37.02037 -4.85777 15058 ft 267 kts 124°
2026-04-23 22:48 37.01173 -4.83719 15058 ft 267 kts 123°
2026-04-23 22:48 37.00306 -4.81654 15059 ft 267 kts 124°
2026-04-23 22:48 36.99439 -4.79591 15057 ft 268 kts 124°
2026-04-23 22:48 36.98570 -4.77532 15057 ft 268 kts 123°
2026-04-23 22:49 36.97705 -4.75465 15066 ft 268 kts 124°
2026-04-23 22:49 36.96845 -4.73426 15062 ft 269 kts 124°
2026-04-23 22:49 36.95973 -4.71363 15056 ft 269 kts 124°
2026-04-23 22:49 36.95097 -4.69292 15021 ft 268 kts 124°
2026-04-23 22:50 36.94233 -4.67236 15048 ft 267 kts 124°
2026-04-23 22:50 36.93365 -4.65180 15064 ft 267 kts 124°
2026-04-23 22:50 36.92492 -4.63122 15063 ft 268 kts 124°
2026-04-23 22:50 36.91627 -4.61075 15059 ft 269 kts 124°
2026-04-23 22:51 36.90750 -4.59003 15068 ft 269 kts 124°
2026-04-23 22:51 36.89873 -4.56935 15072 ft 269 kts 124°
2026-04-23 22:51 36.88994 -4.54863 15065 ft 269 kts 124°
2026-04-23 22:51 36.88125 -4.52815 15070 ft 270 kts 124°
2026-04-23 22:52 36.87245 -4.50738 15071 ft 270 kts 123°
2026-04-23 22:52 36.86364 -4.48663 15073 ft 270 kts 124°
2026-04-23 22:52 36.85493 -4.46611 15070 ft 270 kts 124°
2026-04-23 22:52 36.84606 -4.44528 15076 ft 270 kts 124°
2026-04-23 22:53 36.83723 -4.42450 15072 ft 271 kts 124°
2026-04-23 22:53 36.82839 -4.40374 15072 ft 271 kts 124°
2026-04-23 22:53 36.81945 -4.38292 15068 ft 272 kts 124°
2026-04-23 22:53 36.81303 -4.36069 15066 ft 279 kts 101°
2026-04-23 22:54 36.81282 -4.33636 15072 ft 282 kts 91°
2026-04-23 22:54 36.81400 -4.31223 15075 ft 283 kts 90°
2026-04-23 22:54 36.81528 -4.28767 15065 ft 283 kts 91°
2026-04-23 22:54 36.81602 -4.26314 15066 ft 283 kts 93°
2026-04-23 22:55 36.81627 -4.23860 15056 ft 283 kts 94°
2026-04-23 22:55 36.81652 -4.21400 15069 ft 283 kts 93°
2026-04-23 22:55 36.81684 -4.18939 15070 ft 283 kts 93°
2026-04-23 22:55 36.81715 -4.16507 15053 ft 283 kts 93°
2026-04-23 22:56 36.81741 -4.14055 15064 ft 283 kts 93°
2026-04-23 22:56 36.81773 -4.11593 15065 ft 283 kts 93°
2026-04-23 22:56 36.81801 -4.09130 15069 ft 284 kts 93°
2026-04-23 22:56 36.81831 -4.06672 15046 ft 284 kts 93°
2026-04-23 22:57 36.81858 -4.04208 15062 ft 283 kts 93°
2026-04-23 22:57 36.81888 -4.01746 15064 ft 283 kts 93°
2026-04-23 22:57 36.81914 -3.99307 15059 ft 284 kts 93°
2026-04-23 22:57 36.81941 -3.96844 15056 ft 283 kts 93°
2026-04-23 22:58 36.81966 -3.94373 15066 ft 284 kts 94°
2026-04-23 22:58 36.81991 -3.91905 15065 ft 284 kts 93°
2026-04-23 22:58 36.82016 -3.89443 15055 ft 284 kts 93°
2026-04-23 22:58 36.82040 -3.87005 15051 ft 284 kts 93°
2026-04-23 22:59 36.82066 -3.84539 15026 ft 283 kts 93°
2026-04-23 22:59 36.82090 -3.82074 15052 ft 283 kts 93°
2026-04-23 22:59 36.82113 -3.79613 15054 ft 283 kts 93°
2026-04-23 22:59 36.82135 -3.77187 15055 ft 283 kts 93°
2026-04-23 23:00 36.82157 -3.74722 15048 ft 283 kts 93°
2026-04-23 23:00 36.82171 -3.72263 15042 ft 283 kts 93°
2026-04-23 23:00 36.82192 -3.69805 15054 ft 283 kts 93°
2026-04-23 23:00 36.82226 -3.67370 15063 ft 284 kts 92°
2026-04-23 23:01 36.82265 -3.64904 15063 ft 285 kts 92°
2026-04-23 23:01 36.82305 -3.62422 15056 ft 286 kts 92°
2026-04-23 23:01 36.82346 -3.59940 15042 ft 286 kts 92°
2026-04-23 23:01 36.82381 -3.57456 15044 ft 284 kts 93°
2026-04-23 23:02 36.82409 -3.54995 15059 ft 284 kts 92°
2026-04-23 23:02 36.82438 -3.52553 15066 ft 285 kts 92°
2026-04-23 23:02 36.82472 -3.50078 15059 ft 285 kts 92°
2026-04-23 23:02 36.82507 -3.47593 15065 ft 286 kts 92°
2026-04-23 23:03 36.82540 -3.45097 15062 ft 288 kts 92°
2026-04-23 23:03 36.82573 -3.42591 15054 ft 288 kts 92°
2026-04-23 23:03 36.82609 -3.40095 15061 ft 287 kts 92°
2026-04-23 23:03 36.82636 -3.37628 15057 ft 287 kts 92°
2026-04-23 23:04 36.82662 -3.35134 15062 ft 287 kts 92°
2026-04-23 23:04 36.82691 -3.32638 15060 ft 287 kts 92°
2026-04-23 23:04 36.82721 -3.30134 15056 ft 288 kts 92°
2026-04-23 23:04 36.82749 -3.27631 15045 ft 287 kts 92°
2026-04-23 23:05 36.82778 -3.25169 15055 ft 286 kts 92°
2026-04-23 23:05 36.82808 -3.22683 15063 ft 286 kts 92°
2026-04-23 23:05 36.82836 -3.20191 15059 ft 286 kts 92°
2026-04-23 23:05 36.82860 -3.17741 15061 ft 286 kts 92°
2026-04-23 23:06 36.82887 -3.15276 15065 ft 287 kts 92°
2026-04-23 23:06 36.82911 -3.12783 15063 ft 288 kts 92°
2026-04-23 23:06 36.82932 -3.10281 15053 ft 288 kts 92°
2026-04-23 23:06 36.82955 -3.07775 14916 ft 292 kts 92°
2026-04-23 23:07 36.82979 -3.05177 14539 ft 305 kts 92°
2026-04-23 23:07 36.83002 -3.02482 14155 ft 315 kts 92°
2026-04-23 23:07 36.83028 -2.99737 13751 ft 323 kts 92°
2026-04-23 23:07 36.83055 -2.96899 13282 ft 328 kts 92°
2026-04-23 23:08 36.83076 -2.94095 12848 ft 317 kts 92°
2026-04-23 23:08 36.83098 -2.91385 12407 ft 308 kts 92°
2026-04-23 23:08 36.83124 -2.88770 11969 ft 301 kts 91°
2026-04-23 23:08 36.83072 -2.86198 11518 ft 289 kts 103°
2026-04-23 23:09 36.82260 -2.83985 11056 ft 278 kts 133°
2026-04-23 23:09 36.80731 -2.82645 10600 ft 266 kts 164°
2026-04-23 23:09 36.78956 -2.82130 10173 ft 259 kts 171°
2026-04-23 23:09 36.77218 -2.81703 9734 ft 257 kts 171°
2026-04-23 23:10 36.75475 -2.81198 9266 ft 256 kts 167°
2026-04-23 23:10 36.73761 -2.80584 8818 ft 255 kts 164°
2026-04-23 23:10 36.72069 -2.79922 8369 ft 253 kts 163°
2026-04-23 23:10 36.70461 -2.79129 7924 ft 251 kts 147°
2026-04-23 23:11 36.69356 -2.77467 7450 ft 253 kts 115°
2026-04-23 23:11 36.68828 -2.75388 7019 ft 252 kts 102°
2026-04-23 23:11 36.68635 -2.73222 6608 ft 250 kts 92°
2026-04-23 23:11 36.68627 -2.71062 6191 ft 248 kts 89°
2026-04-23 23:12 36.68660 -2.68936 5779 ft 246 kts 89°
2026-04-23 23:12 36.68690 -2.66808 5368 ft 243 kts 89°
2026-04-23 23:12 36.68688 -2.64805 4952 ft 219 kts 91°
2026-04-23 23:12 36.68881 -2.63057 4472 ft 203 kts 64°
2026-04-23 23:13 36.69875 -2.61855 3962 ft 200 kts 30°
2026-04-23 23:13 36.71145 -2.61183 3595 ft 195 kts 20°
2026-04-23 23:13 36.72479 -2.60762 3363 ft 199 kts 12°
2026-04-23 23:13 36.73861 -2.60543 3165 ft 199 kts
2026-04-23 23:14 36.75213 -2.60461 3076 ft 194 kts
2026-04-23 23:14 36.76560 -2.60421 2917 ft 193 kts
2026-04-23 23:14 36.77857 -2.60215 2792 ft 184 kts 26°
2026-04-23 23:14 36.78731 -2.59112 2676 ft 179 kts 59°
2026-04-23 23:15 36.79301 -2.57726 2542 ft 180 kts 66°
2026-04-23 23:15 36.79732 -2.56284 2423 ft 180 kts 71°
2026-04-23 23:15 36.80097 -2.54790 2309 ft 179 kts 73°
2026-04-23 23:15 36.80442 -2.53304 2244 ft 176 kts 73°
2026-04-23 23:16 36.80781 -2.51861 2215 ft 169 kts 73°
2026-04-23 23:16 36.81108 -2.50457 2023 ft 166 kts 73°
2026-04-23 23:16 36.81421 -2.49099 1799 ft 159 kts 73°
2026-04-23 23:16 36.81726 -2.47800 1568 ft 153 kts 72°
2026-04-23 23:17 36.82029 -2.46557 1349 ft 150 kts 73°
2026-04-23 23:17 36.82326 -2.45337 1125 ft 143 kts 73°
2026-04-23 23:17 36.82608 -2.44189 918 ft 134 kts 73°
2026-04-23 23:17 36.82868 -2.43131 779 ft 120 kts 73°
2026-04-23 23:18 36.83042 -2.42490 672 ft 115 kts 69°
2026-04-23 23:18 36.83362 -2.41223 510 ft 117 kts 72°
2026-04-23 23:18 36.83523 -2.40555 407 ft 121 kts 70°
2026-04-23 23:18 36.83779 -2.39525 248 ft 126 kts 72°
2026-04-23 23:19 36.84027 -2.38516 82 ft 118 kts 71°
2026-04-23 23:19 36.84207 -2.37781 58 ft 41 kts 73°
2026-04-23 23:19 36.84268 -2.37533 59 ft 31 kts 72°
2026-04-23 23:19 36.84326 -2.37297 58 ft 23 kts 72°
2026-04-23 23:20 36.84393 -2.37131 57 ft 20 kts 55°
2026-04-23 23:20 36.84470 -2.37027 60 ft 11 kts 42°
2026-04-23 23:20 36.84525 -2.36964 57 ft 11 kts 43°
2026-04-23 23:20 36.84581 -2.36902 59 ft 11 kts 39°
2026-04-23 23:21 36.84635 -2.36921 58 ft 8 kts 309°
2026-04-23 23:21 36.84652 -2.36969 64 ft 5 kts 272°
2026-04-23 23:21 36.84643 -2.37014 64 ft 6 kts 253°
2026-04-23 23:21 36.84630 -2.37071 63 ft 8 kts 254°
2026-04-23 23:22 36.84614 -2.37138 64 ft 8 kts 256°
2026-04-23 23:22 36.84637 -2.37173 63 ft 5 kts 336°
2026-04-23 23:22 36.84670 -2.37186 60 ft 5 kts 350°
2026-04-23 23:22 36.84689 -2.37166 67 ft 2 kts 81°
2026-04-23 23:23 36.84678 -2.37156 60 ft 0 kts 152°